Time;durP1;ratioP1;P1;durP2;ratioP2;P2;SDS_P1;SDS_P2;PMS_P1;PMS_P2;Temp;Humidity;BMP_temperature;BMP_pressure;BME280_temperature;BME280_humidity;BME280_pressure;Samples;Min_cycle;Max_cycle;Signal;HPM_P1;HPM_P2
2021/01/13 00:00:34;;;;;;;7.65;1.58;;;0.40;99.90;;;;;;4913851;28;20913;-80
2021/01/13 00:02:59;;;;;;;8.18;1.13;;;0.30;99.90;;;;;;4915230;28;20080;-78
2021/01/13 00:05:26;;;;;;;14.70;1.55;;;0.30;99.90;;;;;;4913539;28;20088;-82
2021/01/13 00:07:53;;;;;;;7.30;1.15;;;0.30;99.90;;;;;;4918137;28;20096;-79
2021/01/13 00:10:23;;;;;;;10.35;1.77;;;0.30;99.90;;;;;;4911112;28;20094;-78
2021/01/13 00:12:47;;;;;;;19.52;1.35;;;0.30;99.90;;;;;;4911464;28;20446;-80
2021/01/13 00:15:12;;;;;;;6.70;1.30;;;0.30;99.90;;;;;;4911309;28;20100;-80
2021/01/13 00:17:38;;;;;;;5.63;1.17;;;0.20;99.90;;;;;;4910249;28;20094;-78
2021/01/13 00:20:03;;;;;;;14.60;1.17;;;0.10;99.90;;;;;;4909491;28;20106;-79
2021/01/13 00:22:29;;;;;;;10.57;0.90;;;0.20;99.90;;;;;;4911344;28;20083;-78
2021/01/13 00:24:53;;;;;;;14.00;1.45;;;0.10;99.90;;;;;;4913153;28;20088;-78
2021/01/13 00:27:21;;;;;;;13.75;1.38;;;;;;;;;;4916998;28;20092;-79
2021/01/13 00:29:55;;;;;;;10.88;1.05;;;0.10;99.90;;;;;;4931582;28;20098;-78
2021/01/13 00:32:22;;;;;;;6.60;1.20;;;;;;;;;;4930686;28;20531;-78
2021/01/13 00:34:47;;;;;;;15.20;1.58;;;0.10;99.90;;;;;;4927084;28;20110;-78
2021/01/13 00:37:15;;;;;;;8.23;1.15;;;0.10;99.90;;;;;;4928738;28;20761;-78
2021/01/13 00:39:42;;;;;;;5.63;1.08;;;0.20;99.90;;;;;;4931806;28;20088;-77
2021/01/13 00:42:13;;;;;;;14.13;1.38;;;0.20;99.90;;;;;;4904109;28;20085;-80
2021/01/13 00:44:37;;;;;;;12.05;1.30;;;0.30;99.90;;;;;;4906878;28;20664;-77
2021/01/13 00:47:04;;;;;;;15.27;1.58;;;0.30;99.90;;;;;;4903550;28;20105;-78
2021/01/13 00:49:38;;;;;;;3.95;1.13;;;0.30;99.90;;;;;;4919537;28;20127;-78
2021/01/13 00:52:01;;;;;;;11.52;1.20;;;0.30;99.90;;;;;;4910069;28;20466;-78
2021/01/13 00:54:24;;;;;;;9.60;0.73;;;0.20;99.90;;;;;;4931668;28;20513;-78
2021/01/13 00:56:49;;;;;;;9.57;1.40;;;0.10;99.90;;;;;;4929425;28;20090;-78
2021/01/13 00:59:13;;;;;;;9.77;1.13;;;0.10;99.90;;;;;;4932434;28;20560;-78
2021/01/13 01:01:42;;;;;;;16.77;0.82;;;0.10;99.90;;;;;;4919406;28;20092;-78
2021/01/13 01:04:08;;;;;;;6.03;0.93;;;0.20;99.90;;;;;;4925575;28;20111;-78
2021/01/13 01:06:32;;;;;;;13.25;1.30;;;0.20;99.90;;;;;;4931239;28;20093;-78
2021/01/13 01:09:05;;;;;;;10.45;1.08;;;0.20;99.90;;;;;;4931737;28;20087;-78
2021/01/13 01:11:38;;;;;;;12.13;0.95;;;0.20;99.90;;;;;;4903079;28;20520;-78
2021/01/13 01:14:05;;;;;;;13.07;1.55;;;0.30;99.90;;;;;;4920966;28;20096;-79
2021/01/13 01:16:30;;;;;;;10.30;1.00;;;0.40;99.90;;;;;;4912818;28;20112;-78
2021/01/13 01:19:05;;;;;;;10.30;0.88;;;0.40;99.90;;;;;;4930217;28;20100;-79
2021/01/13 01:21:30;;;;;;;3.88;0.70;;;;;;;;;;4931749;28;20085;-78
2021/01/13 01:23:56;;;;;;;19.05;1.20;;;0.60;99.90;;;;;;4925699;28;20084;-78
2021/01/13 01:26:22;;;;;;;12.48;1.42;;;0.60;99.90;;;;;;4934079;28;20103;-78
2021/01/13 01:29:02;;;;;;;10.02;1.13;;;0.60;99.90;;;;;;4934514;28;20100;-78
2021/01/13 01:31:25;;;;;;;12.57;1.45;;;0.60;99.90;;;;;;4924856;28;20095;-78
2021/01/13 01:33:50;;;;;;;14.05;1.17;;;0.60;99.90;;;;;;4929452;28;20081;-79
2021/01/13 01:36:16;;;;;;;8.80;1.23;;;0.70;99.90;;;;;;4922314;28;20095;-78
2021/01/13 01:38:59;;;;;;;5.57;1.30;;;0.70;99.90;;;;;;4916414;28;20096;-79
2021/01/13 01:41:31;;;;;;;6.65;0.70;;;0.70;99.90;;;;;;4921248;28;20087;-79
2021/01/13 01:43:53;;;;;;;9.02;0.95;;;0.80;99.90;;;;;;4922945;28;20109;-78
2021/01/13 01:46:25;;;;;;;3.67;1.15;;;0.70;99.90;;;;;;4917220;28;20089;-81
2021/01/13 01:48:51;;;;;;;5.65;0.75;;;0.70;99.90;;;;;;4916522;28;20180;-79
2021/01/13 01:51:46;;;;;;;10.90;1.60;;;0.70;99.90;;;;;;4916307;28;20123;-80
2021/01/13 01:54:22;;;;;;;4.88;0.57;;;0.70;99.90;;;;;;4931126;28;20109;-79
2021/01/13 01:56:47;;;;;;;4.80;0.60;;;0.70;99.90;;;;;;4915690;28;20094;-79
2021/01/13 01:59:12;;;;;;;9.53;1.23;;;0.60;99.90;;;;;;4916104;28;20180;-78
2021/01/13 02:01:56;;;;;;;25.67;1.52;;;0.70;99.90;;;;;;4914309;28;20802;-78
2021/01/13 02:04:29;;;;;;;13.02;0.90;;;0.70;99.90;;;;;;4914357;28;20140;-78
2021/01/13 02:07:26;;;;;;;8.25;0.90;;;0.60;99.90;;;;;;4914806;28;20118;-79
2021/01/13 02:09:50;;;;;;;20.10;1.27;;;0.70;99.90;;;;;;4930115;28;20112;-79
2021/01/13 02:12:15;;;;;;;16.65;1.02;;;0.70;99.90;;;;;;4933374;28;20103;-79
2021/01/13 02:14:43;;;;;;;7.78;0.82;;;0.60;99.90;;;;;;4933477;28;20098;-78
2021/01/13 02:17:32;;;;;;;15.52;1.88;;;0.60;99.90;;;;;;4933011;28;20101;-78
2021/01/13 02:20:15;;;;;;;19.85;1.23;;;0.60;99.90;;;;;;4930474;28;20106;-78
2021/01/13 02:23:03;;;;;;;16.17;1.42;;;0.50;99.90;;;;;;4930830;28;20104;-79
2021/01/13 02:26:04;;;;;;;7.85;0.88;;;0.60;99.90;;;;;;4922751;28;20108;-78
2021/01/13 02:28:34;;;;;;;12.50;0.90;;;0.60;99.90;;;;;;4922277;28;20121;-79
2021/01/13 02:31:31;;;;;;;6.85;0.77;;;0.70;99.90;;;;;;4916733;28;20091;-79
2021/01/13 02:34:05;;;;;;;8.25;0.88;;;0.70;99.90;;;;;;4921191;28;20108;-78
2021/01/13 02:37:20;;;;;;;7.07;0.65;;;0.70;99.90;;;;;;4931249;28;25393;-78
2021/01/13 02:39:53;;;;;;;13.00;0.82;;;0.70;99.90;;;;;;4924752;28;20156;-79
2021/01/13 02:42:23;;;;;;;6.18;0.63;;;0.80;99.90;;;;;;4929705;28;20099;-78
2021/01/13 02:45:08;;;;;;;5.32;0.63;;;0.80;99.90;;;;;;4933029;28;20093;-78
2021/01/13 02:48:07;;;;;;;4.35;0.47;;;0.70;99.90;;;;;;4918462;28;20111;-79
2021/01/13 02:50:34;;;;;;;12.27;1.33;;;0.70;99.90;;;;;;4913602;28;20096;-79
2021/01/13 02:53:48;;;;;;;7.50;1.13;;;0.80;99.90;;;;;;4924161;28;20161;-78
2021/01/13 02:56:39;;;;;;;3.55;0.70;;;0.70;99.90;;;;;;4926589;28;20527;-79
2021/01/13 02:59:13;;;;;;;5.70;0.52;;;0.80;99.90;;;;;;4912442;28;20183;-78
2021/01/13 03:02:12;;;;;;;9.30;0.75;;;0.80;99.90;;;;;;4932623;28;20086;-78
2021/01/13 03:04:56;;;;;;;5.22;0.88;;;0.80;99.90;;;;;;4931989;28;20137;-80
2021/01/13 03:07:27;;;;;;;7.97;0.82;;;0.80;99.90;;;;;;4932627;28;20088;-79
2021/01/13 03:10:00;;;;;;;11.13;1.13;;;0.80;99.90;;;;;;4926140;28;20139;-80
2021/01/13 03:12:28;;;;;;;10.93;0.98;;;0.80;99.90;;;;;;4931056;28;20568;-79
2021/01/13 03:14:55;;;;;;;5.10;0.90;;;0.80;99.90;;;;;;4928383;28;20082;-80
2021/01/13 03:17:54;;;;;;;10.13;0.75;;;0.80;99.90;;;;;;4926778;28;20575;-78
2021/01/13 03:20:30;;;;;;;13.63;0.63;;;0.80;99.90;;;;;;4927518;28;20092;-80
2021/01/13 03:23:05;;;;;;;4.45;0.70;;;0.80;99.90;;;;;;4920552;28;20087;-83
2021/01/13 03:25:36;;;;;;;22.30;0.93;;;0.80;99.90;;;;;;4912152;28;20162;-79
2021/01/13 03:28:13;;;;;;;17.85;1.25;;;0.80;99.90;;;;;;4917222;28;20082;-79
2021/01/13 03:30:53;;;;;;;7.78;0.68;;;0.80;99.90;;;;;;4928131;28;20091;-78
2021/01/13 03:34:07;;;;;;;2.38;0.52;;;0.70;99.90;;;;;;4923910;28;20103;-79
2021/01/13 03:36:53;;;;;;;10.30;1.02;;;0.70;99.90;;;;;;4927437;28;20532;-79
2021/01/13 03:39:21;;;;;;;8.50;1.05;;;0.60;99.90;;;;;;4915300;28;25564;-80
2021/01/13 03:42:16;;;;;;;7.45;0.65;;;0.70;99.90;;;;;;4912621;28;20553;-78
2021/01/13 03:44:41;;;;;;;2.65;0.60;;;0.70;99.90;;;;;;4923550;28;20093;-79
2021/01/13 03:47:40;;;;;;;18.13;1.25;;;0.70;99.90;;;;;;4906152;28;20093;-79
2021/01/13 03:50:17;;;;;;;7.90;0.52;;;0.80;99.90;;;;;;4923398;28;20509;-78
2021/01/13 03:52:55;;;;;;;22.35;1.00;;;0.80;99.90;;;;;;4928737;28;20125;-80
2021/01/13 03:55:28;;;;;;;8.43;0.57;;;0.90;99.90;;;;;;4930356;28;20548;-79
2021/01/13 03:58:43;;;;;;;5.60;0.80;;;0.90;99.90;;;;;;4916596;28;20133;-81
2021/01/13 04:01:35;;;;;;;6.00;0.50;;;0.90;99.90;;;;;;4923586;28;20089;-79
2021/01/13 04:04:24;;;;;;;16.35;0.80;;;0.90;99.90;;;;;;4902048;28;20095;-79
2021/01/13 04:06:58;;;;;;;11.38;1.42;;;0.90;99.90;;;;;;4931686;28;20132;-79
2021/01/13 04:09:22;;;;;;;4.03;0.57;;;0.90;99.90;;;;;;4930539;28;20097;-79
2021/01/13 04:12:06;;;;;;;7.88;0.98;;;0.90;99.90;;;;;;4930782;28;20102;-80
2021/01/13 04:14:56;;;;;;;11.10;0.70;;;0.80;99.90;;;;;;4916313;28;20099;-79
2021/01/13 04:17:19;;;;;;;6.45;0.80;;;0.80;99.90;;;;;;4906088;28;20104;-80
2021/01/13 04:19:59;;;;;;;3.67;0.70;;;0.80;99.90;;;;;;4904091;28;20123;-80
2021/01/13 04:22:27;;;;;;;6.55;0.60;;;0.90;99.90;;;;;;4924858;28;20106;-79
2021/01/13 04:24:52;;;;;;;1.65;0.30;;;0.90;99.90;;;;;;4924672;28;20095;-79
2021/01/13 04:27:17;;;;;;;2.72;0.35;;;1.00;99.90;;;;;;4931943;28;20087;-79
2021/01/13 04:29:44;;;;;;;12.48;1.00;;;1.00;99.90;;;;;;4917187;28;20092;-81
2021/01/13 04:32:10;;;;;;;9.23;0.70;;;1.10;99.90;;;;;;4911640;28;20089;-80
2021/01/13 04:34:36;;;;;;;4.40;0.70;;;;;;;;;;4913037;28;20087;-79
2021/01/13 04:37:01;;;;;;;2.30;0.47;;;1.10;99.90;;;;;;4894305;28;20166;-80
2021/01/13 04:39:42;;;;;;;5.57;0.43;;;1.10;99.90;;;;;;4912053;28;20097;-81
2021/01/13 04:42:21;;;;;;;9.32;0.60;;;1.10;99.90;;;;;;4911176;28;20095;-79
2021/01/13 04:45:26;;;;;;;3.72;0.80;;;1.10;99.90;;;;;;4907621;28;20117;-79
2021/01/13 04:47:52;;;;;;;6.80;0.40;;;1.10;99.90;;;;;;4848020;28;20183;-80
2021/01/13 04:50:38;;;;;;;4.28;0.50;;;1.10;99.90;;;;;;4851743;28;20092;-80
2021/01/13 04:53:10;;;;;;;7.22;0.88;;;1.10;99.90;;;;;;4850342;28;20175;-79
2021/01/13 04:55:54;;;;;;;5.38;0.65;;;1.10;99.90;;;;;;4843621;28;20661;-79
2021/01/13 04:59:01;;;;;;;4.50;0.75;;;1.00;99.90;;;;;;4842571;28;20546;-79
2021/01/13 05:02:09;;;;;;;6.47;0.77;;;0.90;99.90;;;;;;4852351;28;20514;-80
2021/01/13 05:05:03;;;;;;;17.67;1.17;;;0.80;99.90;;;;;;4926397;28;20087;-85
2021/01/13 05:07:38;;;;;;;2.75;0.47;;;0.80;99.90;;;;;;4930482;28;20117;-80
2021/01/13 05:10:21;;;;;;;9.25;0.45;;;;;;;;;;4929266;28;20166;-80
2021/01/13 05:12:57;;;;;;;9.02;0.90;;;0.80;99.90;;;;;;4926600;28;20141;-79
2021/01/13 05:15:28;;;;;;;1.50;0.40;;;0.80;99.90;;;;;;4929678;28;20114;-78
2021/01/13 05:18:07;;;;;;;8.70;0.90;;;0.70;99.90;;;;;;4926481;28;20416;-80
2021/01/13 05:20:40;;;;;;;6.65;0.55;;;0.70;99.90;;;;;;4928067;28;20093;-80
2021/01/13 05:23:05;;;;;;;4.05;0.65;;;0.70;99.90;;;;;;4918979;28;20087;-80
2021/01/13 05:25:49;;;;;;;5.28;0.68;;;0.70;99.90;;;;;;4931784;28;20090;-80
2021/01/13 05:28:43;;;;;;;1.17;0.60;;;0.70;99.90;;;;;;4922286;28;20168;-79
2021/01/13 05:31:15;;;;;;;7.03;1.10;;;0.70;99.90;;;;;;4907541;28;20088;-80
2021/01/13 05:33:58;;;;;;;1.50;0.47;;;0.60;99.90;;;;;;4911175;28;20088;-80
2021/01/13 05:36:27;;;;;;;8.95;0.30;;;0.60;99.90;;;;;;4909254;28;20100;-79
2021/01/13 05:39:14;;;;;;;1.75;0.45;;;0.60;99.90;;;;;;4909797;28;20092;-79
2021/01/13 05:41:44;;;;;;;2.78;0.40;;;0.60;99.90;;;;;;4900532;28;20086;-80
2021/01/13 05:44:14;;;;;;;6.50;0.73;;;0.70;99.90;;;;;;4904596;28;21539;-80
2021/01/13 05:46:45;;;;;;;7.90;0.82;;;0.70;99.90;;;;;;4911235;28;20100;-80
2021/01/13 05:49:11;;;;;;;7.65;0.65;;;0.70;99.90;;;;;;4904312;28;20091;-79
2021/01/13 05:51:45;;;;;;;10.68;0.90;;;0.60;99.90;;;;;;4909287;28;20101;-80
2021/01/13 05:54:18;;;;;;;4.88;0.73;;;0.50;99.90;;;;;;4929872;28;20088;-79
2021/01/13 05:56:42;;;;;;;3.10;0.60;;;0.50;99.90;;;;;;4897558;28;20109;-81
2021/01/13 05:59:09;;;;;;;7.07;0.30;;;0.50;99.90;;;;;;4921459;28;20175;-79
2021/01/13 06:01:43;;;;;;;5.70;0.60;;;0.50;99.90;;;;;;4928413;28;20084;-79
2021/01/13 06:04:24;;;;;;;4.75;0.50;;;0.60;99.90;;;;;;4929786;28;20113;-81
2021/01/13 06:07:19;;;;;;;8.15;0.57;;;0.70;99.90;;;;;;4914245;28;20089;-79
2021/01/13 06:09:44;;;;;;;2.00;0.55;;;0.60;99.90;;;;;;4919093;28;20101;-80
2021/01/13 06:12:18;;;;;;;3.67;0.47;;;0.70;99.90;;;;;;4928926;28;20089;-80
2021/01/13 06:14:42;;;;;;;5.03;0.43;;;0.90;99.90;;;;;;4932353;28;20090;-80
2021/01/13 06:17:17;;;;;;;2.10;0.40;;;0.90;99.90;;;;;;4934836;28;20171;-80
2021/01/13 06:19:59;;;;;;;5.97;0.60;;;0.90;99.90;;;;;;4914507;28;20433;-79
2021/01/13 06:22:31;;;;;;;10.52;1.27;;;1.00;99.90;;;;;;4911443;28;20093;-79
2021/01/13 06:25:14;;;;;;;6.45;0.60;;;1.00;99.90;;;;;;4915114;28;20176;-79
2021/01/13 06:27:59;;;;;;;3.17;0.65;;;1.00;99.90;;;;;;4928813;28;20122;-79
2021/01/13 06:30:27;;;;;;;7.82;0.88;;;;;;;;;;4914872;28;20108;-80
2021/01/13 06:33:18;;;;;;;8.90;0.88;;;1.10;99.90;;;;;;4927295;28;20095;-80
2021/01/13 06:36:17;;;;;;;5.97;0.70;;;1.10;99.90;;;;;;4926477;28;21525;-79
2021/01/13 06:38:50;;;;;;;4.18;1.05;;;1.10;99.90;;;;;;4921282;28;20099;-81
2021/01/13 06:41:20;;;;;;;2.13;0.60;;;1.10;99.90;;;;;;4913858;28;20083;-79
2021/01/13 06:43:58;;;;;;;8.38;1.20;;;1.10;99.90;;;;;;4915985;28;20454;-80
2021/01/13 06:46:29;;;;;;;14.40;1.15;;;1.10;99.90;;;;;;4911851;28;20439;-80
2021/01/13 06:49:13;;;;;;;5.47;0.80;;;1.10;99.90;;;;;;4914327;28;20487;-79
2021/01/13 06:51:52;;;;;;;4.95;1.42;;;1.10;99.90;;;;;;4920745;28;20082;-81
2021/01/13 06:54:20;;;;;;;7.22;0.98;;;1.10;99.90;;;;;;4931064;28;20095;-79
2021/01/13 06:56:49;;;;;;;3.97;1.13;;;1.10;99.90;;;;;;4930659;28;20081;-80
2021/01/13 06:59:14;;;;;;;3.25;1.00;;;1.10;99.90;;;;;;4927028;28;20119;-79
2021/01/13 07:01:57;;;;;;;1.90;0.55;;;1.10;99.90;;;;;;4931530;28;20098;-79
2021/01/13 07:04:27;;;;;;;9.93;1.13;;;1.20;99.90;;;;;;4921514;28;20096;-80
2021/01/13 07:07:02;;;;;;;7.38;0.88;;;1.20;99.90;;;;;;4933336;28;20095;-80
2021/01/13 07:09:37;;;;;;;8.82;1.10;;;1.10;99.90;;;;;;4926981;28;20170;-79
2021/01/13 07:12:07;;;;;;;10.00;1.47;;;1.10;99.90;;;;;;4933027;28;20515;-80
2021/01/13 07:14:44;;;;;;;10.00;1.58;;;1.10;99.90;;;;;;4912755;28;20100;-79
2021/01/13 07:17:27;;;;;;;8.73;1.38;;;1.10;99.90;;;;;;4928506;28;20089;-80
2021/01/13 07:19:56;;;;;;;5.40;1.17;;;1.10;99.90;;;;;;4930057;28;20571;-81
2021/01/13 07:22:55;;;;;;;4.68;1.30;;;1.10;99.90;;;;;;4931911;28;20091;-81
2021/01/13 07:25:25;;;;;;;6.95;1.08;;;1.00;99.90;;;;;;4916712;28;20121;-80
2021/01/13 07:28:05;;;;;;;7.25;1.42;;;1.00;99.90;;;;;;4917343;28;20514;-79
2021/01/13 07:30:32;;;;;;;10.82;1.73;;;1.00;99.90;;;;;;4924396;28;20147;-79
2021/01/13 07:33:00;;;;;;;3.50;1.55;;;1.10;99.90;;;;;;4914582;28;20752;-80
2021/01/13 07:35:31;;;;;;;5.55;1.58;;;1.10;99.90;;;;;;4913220;28;20142;-79
2021/01/13 07:38:13;;;;;;;3.47;1.23;;;1.10;99.90;;;;;;4915723;28;20096;-79
2021/01/13 07:40:38;;;;;;;5.97;1.60;;;1.20;99.90;;;;;;4926438;28;20135;-79
2021/01/13 07:43:12;;;;;;;;;;;1.20;99.90;;;;;;4931419;28;20111;-80
2021/01/13 07:45:50;;;;;;;5.32;1.67;;;1.20;99.90;;;;;;4914138;28;19974;-80
2021/01/13 07:48:47;;;;;;;6.00;1.42;;;1.20;99.90;;;;;;4901221;28;20157;-79
2021/01/13 07:51:21;;;;;;;5.90;1.77;;;1.20;99.90;;;;;;4919071;28;20242;-79
2021/01/13 07:54:06;;;;;;;13.25;2.05;;;1.20;99.90;;;;;;4929948;28;20614;-79
2021/01/13 07:56:47;;;;;;;9.25;1.95;;;1.20;99.90;;;;;;4925834;28;20102;-79
2021/01/13 07:59:35;;;;;;;10.85;2.10;;;1.30;99.90;;;;;;4927941;28;20083;-80
2021/01/13 08:02:52;;;;;;;9.70;2.05;;;1.30;99.90;;;;;;4918853;28;20427;-79
2021/01/13 08:05:54;;;;;;;7.23;2.03;;;1.30;99.90;;;;;;4924384;28;20169;-79
2021/01/13 08:08:24;;;;;;;12.75;2.13;;;1.30;99.90;;;;;;4923537;28;20556;-79
2021/01/13 08:10:52;;;;;;;8.43;2.00;;;;;;;;;;4928790;28;20116;-80
2021/01/13 08:13:44;;;;;;;8.55;1.95;;;1.30;99.90;;;;;;4927696;28;20101;-78
2021/01/13 08:16:45;;;;;;;12.20;1.80;;;1.30;99.90;;;;;;4929427;28;20122;-81
2021/01/13 08:19:52;;;;;;;7.97;1.83;;;1.40;99.90;;;;;;4921605;28;20165;-79
2021/01/13 08:22:25;;;;;;;14.30;2.40;;;1.30;99.90;;;;;;4928968;28;20197;-82
2021/01/13 08:24:59;;;;;;;7.43;1.98;;;1.40;99.90;;;;;;4931349;28;20081;-80
2021/01/13 08:27:30;;;;;;;13.20;2.25;;;1.40;99.90;;;;;;4930089;28;20174;-80
2021/01/13 08:30:03;;;;;;;12.35;2.53;;;1.40;99.90;;;;;;4914183;28;20145;-80
2021/01/13 08:32:40;;;;;;;6.35;2.35;;;1.40;99.90;;;;;;4911383;28;20100;-79
2021/01/13 08:35:05;;;;;;;7.22;2.00;;;1.40;99.90;;;;;;4907892;28;20440;-81
2021/01/13 08:37:33;;;;;;;20.48;2.33;;;1.40;99.90;;;;;;4904298;28;20089;-82
2021/01/13 08:40:00;;;;;;;7.40;1.90;;;1.40;99.90;;;;;;4928043;28;20091;-79
2021/01/13 08:42:25;;;;;;;10.23;1.92;;;1.40;99.90;;;;;;4930164;28;20103;-83
2021/01/13 08:45:03;;;;;;;9.57;1.77;;;1.40;99.90;;;;;;4929648;28;20174;-81
2021/01/13 08:47:28;;;;;;;12.07;1.92;;;1.50;99.90;;;;;;4917427;28;20089;-80
2021/01/13 08:50:19;;;;;;;14.48;2.70;;;1.50;99.90;;;;;;4921150;28;20462;-79
2021/01/13 08:52:50;;;;;;;17.05;2.35;;;1.50;99.90;;;;;;4901777;28;20086;-81
2021/01/13 08:55:23;;;;;;;10.38;2.13;;;1.50;99.90;;;;;;4927926;28;20100;-81
2021/01/13 08:57:55;;;;;;;8.20;2.08;;;1.50;99.90;;;;;;4921776;28;20103;-81
2021/01/13 09:00:38;;;;;;;6.13;2.03;;;1.40;99.90;;;;;;4931923;28;20087;-80
2021/01/13 09:10:35;;;;;;;13.27;2.33;;;1.40;99.90;;;;;;4905711;28;20189;-80
2021/01/13 11:58:01;;;;;;;12.63;3.35;;;2.80;99.90;;;;;;4892973;28;20528;-83
2021/01/13 12:01:10;;;;;;;23.58;6.25;;;2.80;99.90;;;;;;4889281;28;20117;-83
2021/01/13 16:21:58;;;;;;;5.72;0.80;;;0.70;99.90;;;;;;4873678;28;20103;-79
2021/01/13 18:46:28;;;;;;;1.27;0.68;;;0.60;99.90;;;;;;4920607;28;20111;-85
2021/01/13 18:48:55;;;;;;;2.47;0.70;;;0.70;99.90;;;;;;4910123;28;20095;-82
2021/01/13 18:51:18;;;;;;;2.17;0.68;;;0.70;99.90;;;;;;4895799;28;20159;-80
2021/01/13 23:08:58;;;;;;;8.35;0.70;;;;;;;;;;4897523;28;20209;-85
2021/01/13 23:11:22;;;;;;;4.63;0.40;;;0.90;99.90;;;;;;4893045;28;20094;-83
2021/01/13 23:13:45;;;;;;;14.80;0.73;;;1.00;99.90;;;;;;4900793;28;20109;-83
2021/01/13 23:16:09;;;;;;;2.85;0.40;;;1.00;99.90;;;;;;4903412;28;20092;-83
2021/01/13 23:18:32;;;;;;;1.45;0.60;;;1.00;99.90;;;;;;4901667;28;20192;-84
2021/01/13 23:20:56;;;;;;;0.80;0.32;;;;;;;;;;4906518;28;20093;-85
2021/01/13 23:23:21;;;;;;;2.58;0.30;;;1.10;99.90;;;;;;4908213;28;20545;-84
2021/01/13 23:25:46;;;;;;;7.20;0.57;;;1.10;99.90;;;;;;4901884;28;20091;-82
2021/01/13 23:28:10;;;;;;;7.07;0.60;;;1.10;99.90;;;;;;4903463;28;20100;-83
2021/01/13 23:30:41;;;;;;;3.92;0.47;;;1.20;99.90;;;;;;4901383;28;20149;-83
2021/01/13 23:33:06;;;;;;;1.90;0.47;;;1.10;99.90;;;;;;4887140;28;20104;-82
2021/01/13 23:35:31;;;;;;;8.63;0.38;;;1.10;99.90;;;;;;4889780;28;20703;-83
2021/01/13 23:37:56;;;;;;;2.28;0.40;;;1.10;99.90;;;;;;4901453;28;20243;-83
2021/01/13 23:40:20;;;;;;;4.43;0.40;;;1.10;99.90;;;;;;4902602;28;20107;-82
2021/01/13 23:42:45;;;;;;;0.63;0.28;;;1.10;99.90;;;;;;4903098;28;20569;-83
2021/01/13 23:45:10;;;;;;;5.93;0.47;;;1.00;99.90;;;;;;4899987;28;20099;-84
2021/01/13 23:47:33;;;;;;;;;;;1.00;99.90;;;;;;4897630;28;20118;-83
2021/01/13 23:49:57;;;;;;;2.47;0.50;;;1.10;99.90;;;;;;4902247;28;20413;-83
2021/01/13 23:52:32;;;;;;;1.95;0.40;;;1.10;99.90;;;;;;4893307;28;20093;-84
2021/01/13 23:54:56;;;;;;;0.52;0.35;;;1.10;99.90;;;;;;4903137;28;20098;-82
2021/01/13 23:57:20;;;;;;;0.70;0.25;;;1.10;99.90;;;;;;4904043;28;20106;-84
2021/01/13 23:59:46;;;;;;;9.63;0.70;;;1.10;99.90;;;;;;4900620;28;20171;-83
